Time;durP1;ratioP1;P1;durP2;ratioP2;P2;SDS_P1;SDS_P2;PMS_P1;PMS_P2;Temp;Humidity;BMP_temperature;BMP_pressure;BME280_temperature;BME280_humidity;BME280_pressure;Samples;Min_cycle;Max_cycle;Signal;HPM_P1;HPM_P2
2023/01/25 00:00:08;;;;;;;;;;;;;;;0.60;100.00;97996.25;5075261;28;20451;-71
2023/01/25 00:02:34;;;;;;;;;;;;;;;0.60;100.00;97991.91;5074928;28;20411;-71
2023/01/25 00:05:00;;;;;;;;;;;;;;;0.60;100.00;97983.34;5075307;28;19974;-71
2023/01/25 00:07:26;;;;;;;;;;;;;;;0.58;100.00;97990.38;5075108;28;20431;-71
2023/01/25 00:09:52;;;;;;;;;;;;;;;0.58;100.00;97980.06;5075052;28;19951;-71
2023/01/25 00:12:18;;;;;;;;;;;;;;;0.59;100.00;97987.69;5074903;28;19978;-71
2023/01/25 00:14:44;;;;;;;;;;;;;;;0.59;100.00;97979.13;5074925;28;19993;-71
2023/01/25 00:17:10;;;;;;;;;;;;;;;0.58;100.00;97988.59;5074946;28;19961;-71
2023/01/25 00:19:35;;;;;;;;;;;;;;;0.57;100.00;97981.00;5074895;28;20000;-71
2023/01/25 00:22:01;;;;;;;;;;;;;;;0.59;100.00;97981.72;5074667;28;20396;-71
2023/01/25 00:24:27;;;;;;;;;;;;;;;0.59;100.00;97973.97;5074668;28;20314;-71
2023/01/25 00:26:53;;;;;;;;;;;;;;;0.59;100.00;97972.19;5074822;28;19951;-71
2023/01/25 00:29:19;;;;;;;;;;;;;;;0.62;100.00;97967.75;5074443;28;19966;-71
2023/01/25 00:31:49;;;;;;;;;;;;;;;0.62;100.00;97950.47;5074619;28;20051;-71
2023/01/25 00:34:17;;;;;;;;;;;;;;;0.63;100.00;97953.88;5074560;28;20385;-71
2023/01/25 00:36:43;;;;;;;;;;;;;;;0.62;100.00;97945.31;5074286;28;19948;-71
2023/01/25 00:39:11;;;;;;;;;;;;;;;0.64;100.00;97940.03;5074252;28;19957;-71
2023/01/25 00:41:37;;;;;;;;;;;;;;;0.63;100.00;97949.56;5074526;28;19974;-71
2023/01/25 00:44:02;;;;;;;;;;;;;;;0.63;100.00;97962.47;5074250;28;20476;-71
2023/01/25 00:46:28;;;;;;;;;;;;;;;0.62;100.00;97958.22;5074578;28;19971;-71
2023/01/25 00:48:54;;;;;;;;;;;;;;;0.62;100.00;97947.09;5074442;28;20367;-71
2023/01/25 00:51:21;;;;;;;;;;;;;;;0.63;100.00;97964.19;5074220;28;20415;-71
2023/01/25 00:53:47;;;;;;;;;;;;;;;0.62;100.00;97978.88;5073626;28;19950;-71
2023/01/25 00:56:13;;;;;;;;;;;;;;;0.62;100.00;97965.16;5074007;28;19950;-72
2023/01/25 00:58:39;;;;;;;;;;;;;;;0.63;100.00;97951.28;5074042;28;19955;-71
2023/01/25 01:01:05;;;;;;;;;;;;;;;0.64;100.00;97950.38;5074039;28;19958;-71
2023/01/25 01:03:31;;;;;;;;;;;;;;;0.64;100.00;97948.59;5074014;28;19954;-71
2023/01/25 01:05:58;;;;;;;;;;;;;;;0.67;100.00;97945.78;5074116;28;19952;-71
2023/01/25 01:08:24;;;;;;;;;;;;;;;0.67;100.00;97947.53;5072766;28;19958;-71
2023/01/25 01:10:50;;;;;;;;;;;;;;;0.65;100.00;97941.66;5073853;28;19954;-71
2023/01/25 01:13:16;;;;;;;;;;;;;;;0.64;100.00;97943.44;5073504;28;20027;-71
2023/01/25 01:15:41;;;;;;;;;;;;;;;0.66;100.00;97938.16;5074045;28;19954;-71
2023/01/25 01:18:07;;;;;;;;;;;;;;;0.65;100.00;97941.66;5073894;28;20424;-71
2023/01/25 01:20:33;;;;;;;;;;;;;;;0.65;100.00;97933.91;5073807;28;20408;-71
2023/01/25 01:22:59;;;;;;;;;;;;;;;0.66;100.00;97944.16;5073114;28;20404;-71
2023/01/25 01:25:25;;;;;;;;;;;;;;;0.66;100.00;97949.31;5073858;28;20053;-71
2023/01/25 01:27:51;;;;;;;;;;;;;;;0.67;100.00;97940.59;5073445;28;19964;-71
2023/01/25 01:30:16;;;;;;;;;;;;;;;0.67;100.00;97932.03;5073635;28;19981;-71
2023/01/25 01:32:42;;;;;;;;;;;;;;;0.64;100.00;97943.44;5073067;28;20022;-71
2023/01/25 01:35:08;;;;;;;;;;;;;;;0.65;100.00;97941.66;5073645;28;20357;-71
2023/01/25 01:37:34;;;;;;;;;;;;;;;0.64;100.00;97945.22;5073478;28;20008;-71
2023/01/25 01:40:00;;;;;;;;;;;;;;;0.61;100.00;97943.69;5073733;28;19954;-71
2023/01/25 01:42:26;;;;;;;;;;;;;;;0.61;100.00;97938.53;5073315;28;19978;-71
2023/01/25 01:44:53;;;;;;;;;;;;;;;0.61;100.00;97941.09;5073440;28;20045;-71
2023/01/25 01:47:34;;;;;;;;;;;;;;;0.63;100.00;97936.66;5073386;28;19966;-71
2023/01/25 01:50:02;;;;;;;;;;;;;;;0.64;100.00;97937.47;5072599;28;19947;-71
2023/01/25 01:52:30;;;;;;;;;;;;;;;0.63;100.00;97938.38;5073185;28;20425;-71
2023/01/25 01:54:59;;;;;;;;;;;;;;;0.62;100.00;97931.59;5057918;28;20300;-71
2023/01/25 01:57:33;;;;;;;;;;;;;;;0.64;100.00;97930.53;5073666;28;19957;-71
2023/01/25 02:00:02;;;;;;;;;;;;;;;0.64;100.00;97935.69;5062863;28;19945;-71
2023/01/25 02:02:30;;;;;;;;;;;;;;;0.67;100.00;97934.63;5073317;28;19960;-71
2023/01/25 02:04:58;;;;;;;;;;;;;;;0.68;100.00;97931.94;5073313;28;20042;-72
2023/01/25 02:07:34;;;;;;;;;;;;;;;0.68;100.00;97936.28;5073118;28;19951;-72
2023/01/25 02:10:01;;;;;;;;;;;;;;;0.68;100.00;97936.28;5073691;28;19951;-71
2023/01/25 02:12:27;;;;;;;;;;;;;;;0.66;100.00;97936.41;5073244;28;20332;-71
2023/01/25 02:14:53;;;;;;;;;;;;;;;0.65;100.00;97936.50;5072238;28;19959;-71
2023/01/25 02:17:26;;;;;;;;;;;;;;;0.66;100.00;97936.41;5073215;28;19959;-71
2023/01/25 02:19:52;;;;;;;;;;;;;;;0.66;100.00;97928.66;5073184;28;20325;-72
2023/01/25 02:22:21;;;;;;;;;;;;;;;0.66;100.00;97927.84;5073099;28;19962;-71
2023/01/25 02:24:52;;;;;;;;;;;;;;;0.65;100.00;97933.91;5072322;28;19957;-71
2023/01/25 02:27:19;;;;;;;;;;;;;;;0.64;100.00;97935.69;5059109;28;19961;-71
2023/01/25 02:29:45;;;;;;;;;;;;;;;0.64;100.00;97925.38;5073193;28;19960;-72
2023/01/25 02:32:12;;;;;;;;;;;;;;;0.67;100.00;97924.31;5072896;28;19972;-71
2023/01/25 02:34:38;;;;;;;;;;;;;;;0.69;100.00;97925.00;5071737;28;19951;-71
2023/01/25 02:37:03;;;;;;;;;;;;;;;0.71;100.00;97918.78;5073036;28;19957;-71
2023/01/25 02:39:29;;;;;;;;;;;;;;;0.74;100.00;97917.75;5073075;28;20010;-71
2023/01/25 02:41:55;;;;;;;;;;;;;;;0.77;100.00;97917.47;5072811;28;20026;-71
2023/01/25 02:44:23;;;;;;;;;;;;;;;0.81;100.00;97911.13;5073931;28;19957;-71
2023/01/25 02:46:50;;;;;;;;;;;;;;;0.83;100.00;97911.84;5076648;28;19953;-71
2023/01/25 02:49:17;;;;;;;;;;;;;;;0.82;100.00;97912.78;5076293;28;19967;-71
2023/01/25 02:51:45;;;;;;;;;;;;;;;0.84;100.00;97916.09;5076009;28;19969;-71
2023/01/25 02:54:12;;;;;;;;;;;;;;;0.83;100.00;97913.63;5076665;28;19955;-71
2023/01/25 02:56:41;;;;;;;;;;;;;;;0.81;100.00;97917.13;5076335;28;19947;-71
2023/01/25 02:59:08;;;;;;;;;;;;;;;0.82;100.00;97910.22;5076487;28;20412;-71
2023/01/25 03:01:35;;;;;;;;;;;;;;;0.83;100.00;97911.03;5076090;28;19956;-71
2023/01/25 03:04:01;;;;;;;;;;;;;;;0.83;100.00;97901.50;5076366;28;20315;-71
2023/01/25 03:06:27;;;;;;;;;;;;;;;0.85;100.00;97911.72;5076199;28;19948;-71
2023/01/25 03:08:53;;;;;;;;;;;;;;;0.88;100.00;97911.47;5076185;28;19948;-71
2023/01/25 03:11:19;;;;;;;;;;;;;;;0.89;100.00;97906.19;5076278;28;20323;-71
2023/01/25 03:13:45;;;;;;;;;;;;;;;0.91;100.00;97903.50;5076034;28;19974;-71
2023/01/25 03:16:11;;;;;;;;;;;;;;;0.93;100.00;97897.25;5076131;28;20503;-71
2023/01/25 03:18:37;;;;;;;;;;;;;;;0.95;100.00;97899.72;5075864;28;19962;-71
2023/01/25 03:21:04;;;;;;;;;;;;;;;0.94;100.00;97905.81;5076259;28;19958;-71
2023/01/25 03:23:30;;;;;;;;;;;;;;;0.93;100.00;97899.03;5075772;28;19954;-71
2023/01/25 03:26:03;;;;;;;;;;;;;;;0.93;100.00;97891.28;5075732;28;20005;-72
2023/01/25 03:28:29;;;;;;;;;;;;;;;0.91;100.00;97893.97;5074981;28;19949;-71
2023/01/25 03:30:55;;;;;;;;;;;;;;;0.91;100.00;97882.84;5075741;28;19962;-71
2023/01/25 03:33:20;;;;;;;;;;;;;;;0.93;100.00;97883.53;5075473;28;20020;-71
2023/01/25 03:35:50;;;;;;;;;;;;;;;0.91;100.00;97881.06;5075602;28;20007;-72
2023/01/25 03:38:18;;;;;;;;;;;;;;;0.92;100.00;97868.97;5076069;28;19943;-71
2023/01/25 03:40:44;;;;;;;;;;;;;;;0.92;100.00;97868.97;5075439;28;19958;-71
2023/01/25 03:43:10;;;;;;;;;;;;;;;0.88;100.00;97865.78;5076113;28;20303;-71
2023/01/25 03:45:36;;;;;;;;;;;;;;;0.88;100.00;97865.78;5075300;28;20358;-71
2023/01/25 03:48:01;;;;;;;;;;;;;;;0.88;100.00;97865.78;5075231;28;19995;-71
2023/01/25 03:50:27;;;;;;;;;;;;;;;0.86;100.00;97870.28;5075919;28;19981;-71
2023/01/25 03:53:00;;;;;;;;;;;;;;;0.86;100.00;97866.88;5075315;28;20028;-71
2023/01/25 03:55:26;;;;;;;;;;;;;;;0.87;100.00;97861.59;5075105;28;20301;-71
2023/01/25 03:57:51;;;;;;;;;;;;;;;0.90;100.00;97861.34;5075120;28;19965;-71
2023/01/25 04:00:18;;;;;;;;;;;;;;;0.91;100.00;97864.75;5075467;28;20006;-71
2023/01/25 04:02:45;;;;;;;;;;;;;;;0.93;100.00;97861.09;5074988;28;19951;-71
2023/01/25 04:05:11;;;;;;;;;;;;;;;0.94;100.00;97864.50;5075344;28;19954;-71
2023/01/25 04:07:37;;;;;;;;;;;;;;;0.94;100.00;97870.47;5074902;28;20467;-71
2023/01/25 04:10:03;;;;;;;;;;;;;;;0.95;100.00;97871.31;5075034;28;19962;-71
2023/01/25 04:12:29;;;;;;;;;;;;;;;0.95;100.00;97863.56;5074812;28;19975;-71
2023/01/25 04:14:55;;;;;;;;;;;;;;;0.94;100.00;97869.66;5075244;28;20339;-71
2023/01/25 04:17:21;;;;;;;;;;;;;;;0.96;100.00;97866.00;5074895;28;19951;-71
2023/01/25 04:19:47;;;;;;;;;;;;;;;0.98;100.00;97866.72;5074792;28;20299;-72
2023/01/25 04:22:13;;;;;;;;;;;;;;;0.99;100.00;97873.53;5074930;28;19960;-71
2023/01/25 04:24:39;;;;;;;;;;;;;;;0.98;100.00;97858.97;5074625;28;19998;-71
2023/01/25 04:27:05;;;;;;;;;;;;;;;1.00;100.00;97872.56;5074585;28;19955;-72
2023/01/25 04:29:30;;;;;;;;;;;;;;;1.00;100.00;97864.00;5074400;28;19947;-71
2023/01/25 04:31:56;;;;;;;;;;;;;;;0.97;100.00;97859.91;5074824;28;19958;-71
2023/01/25 04:34:23;;;;;;;;;;;;;;;0.96;100.00;97865.19;5074631;28;20033;-71
2023/01/25 04:36:48;;;;;;;;;;;;;;;0.97;100.00;97861.69;5074613;28;20393;-71
2023/01/25 04:39:14;;;;;;;;;;;;;;;0.98;100.00;97858.16;5074333;28;19961;-71
2023/01/25 04:41:40;;;;;;;;;;;;;;;0.96;100.00;97858.25;5074046;28;19974;-71
2023/01/25 04:44:06;;;;;;;;;;;;;;;0.95;100.00;97856.63;5075035;28;20002;-71
2023/01/25 04:46:32;;;;;;;;;;;;;;;0.92;100.00;97858.63;5074152;28;19987;-72
2023/01/25 04:48:58;;;;;;;;;;;;;;;0.93;100.00;97855.13;5074397;28;20008;-71
2023/01/25 04:51:24;;;;;;;;;;;;;;;0.93;100.00;97861.09;5074290;28;19983;-73
2023/01/25 04:53:49;;;;;;;;;;;;;;;0.94;100.00;97857.56;5074133;28;20352;-71
2023/01/25 04:56:15;;;;;;;;;;;;;;;0.91;100.00;97852.66;5074133;28;19946;-71
2023/01/25 04:58:41;;;;;;;;;;;;;;;0.88;100.00;97860.63;5074243;28;20449;-71
2023/01/25 05:01:07;;;;;;;;;;;;;;;0.83;100.00;97855.03;5074079;28;20367;-71
2023/01/25 05:03:33;;;;;;;;;;;;;;;0.76;100.00;97846.94;5073860;28;19953;-71
2023/01/25 05:05:59;;;;;;;;;;;;;;;0.72;100.00;97852.47;5073813;28;20008;-72
2023/01/25 05:08:25;;;;;;;;;;;;;;;0.68;100.00;97846.72;5073242;28;20007;-71
2023/01/25 05:10:51;;;;;;;;;;;;;;;0.68;100.00;97858.81;5073624;28;19986;-72
2023/01/25 05:13:17;;;;;;;;;;;;;;;0.67;100.00;97852.81;5073765;28;19979;-71
2023/01/25 05:15:43;;;;;;;;;;;;;;;0.66;100.00;97842.63;5073723;28;20001;-72
2023/01/25 05:18:09;;;;;;;;;;;;;;;0.67;100.00;97850.25;5073835;28;19957;-71
2023/01/25 05:20:35;;;;;;;;;;;;;;;0.69;100.00;97840.59;5106502;28;20003;-71
2023/01/25 05:23:01;;;;;;;;;;;;;;;0.73;100.00;97843.78;5073819;28;19961;-71
2023/01/25 05:28:12;;;;;;;;;;;;;;;0.68;100.00;97838.97;5022942;28;19959;-71
2023/01/25 05:30:38;;;;;;;;;;;;;;;0.68;100.00;97846.72;5068561;28;20006;-71
2023/01/25 05:33:04;;;;;;;;;;;;;;;0.68;100.00;97836.41;5073317;28;19969;-71
2023/01/25 05:35:30;;;;;;;;;;;;;;;0.65;100.00;97847.00;5073453;28;19995;-71
2023/01/25 05:37:57;;;;;;;;;;;;;;;0.62;100.00;97841.22;5073576;28;20468;-71
2023/01/25 05:40:23;;;;;;;;;;;;;;;0.60;100.00;97842.16;5073302;28;19949;-71
2023/01/25 05:42:53;;;;;;;;;;;;;;;0.64;100.00;97845.34;5073639;28;19973;-71
2023/01/25 05:45:19;;;;;;;;;;;;;;;0.67;100.00;97836.50;5073282;28;19958;-71
2023/01/25 05:47:45;;;;;;;;;;;;;;;0.67;100.00;97842.50;5073208;28;20325;-71
2023/01/25 05:50:11;;;;;;;;;;;;;;;0.69;100.00;97847.53;5073458;28;19960;-71
2023/01/25 05:52:37;;;;;;;;;;;;;;;0.68;100.00;97841.56;5073103;28;19965;-71
2023/01/25 05:55:03;;;;;;;;;;;;;;;0.67;100.00;97841.69;5073770;28;19958;-71
2023/01/25 05:57:29;;;;;;;;;;;;;;;0.66;100.00;97835.69;5073002;28;20415;-71
2023/01/25 05:59:55;;;;;;;;;;;;;;;0.68;100.00;97836.41;5073467;28;19953;-71
2023/01/25 06:02:20;;;;;;;;;;;;;;;0.72;100.00;97837.00;5073198;28;19953;-71
2023/01/25 06:04:46;;;;;;;;;;;;;;;0.72;100.00;97832.63;5073410;28;19956;-71
2023/01/25 06:07:12;;;;;;;;;;;;;;;0.71;100.00;97832.75;5072075;28;19957;-71
2023/01/25 06:09:38;;;;;;;;;;;;;;;0.65;100.00;97833.22;5073183;28;19950;-71
2023/01/25 06:12:05;;;;;;;;;;;;;;;0.62;100.00;97839.47;5072860;28;20408;-71
2023/01/25 06:14:31;;;;;;;;;;;;;;;0.57;100.00;97829.50;5072894;28;19968;-71
2023/01/25 06:16:57;;;;;;;;;;;;;;;0.52;100.00;97831.63;5073287;28;19957;-71
2023/01/25 06:19:23;;;;;;;;;;;;;;;0.50;100.00;97828.31;5075877;28;19962;-71
2023/01/25 06:21:49;;;;;;;;;;;;;;;0.53;100.00;97829.88;5077172;28;19956;-71
2023/01/25 06:24:15;;;;;;;;;;;;;;;0.57;100.00;97832.09;5077331;28;19957;-71
2023/01/25 06:26:40;;;;;;;;;;;;;;;0.59;100.00;97830.22;5076892;28;19953;-72
2023/01/25 06:29:06;;;;;;;;;;;;;;;0.63;100.00;97835.97;5076995;28;19980;-71
2023/01/25 06:31:33;;;;;;;;;;;;;;;0.61;100.00;97827.50;5077017;28;21053;-71
2023/01/25 06:34:03;;;;;;;;;;;;;;;0.60;100.00;97829.25;5076852;28;20328;-71
2023/01/25 06:36:29;;;;;;;;;;;;;;;0.61;100.00;97827.50;5076866;28;20404;-71
2023/01/25 06:38:55;;;;;;;;;;;;;;;0.63;100.00;97829.94;5076634;28;19958;-71
2023/01/25 06:41:22;;;;;;;;;;;;;;;0.63;100.00;97827.38;5076591;28;19960;-72
2023/01/25 06:43:51;;;;;;;;;;;;;;;0.63;100.00;97825.63;5076704;28;19958;-71
2023/01/25 06:46:17;;;;;;;;;;;;;;;0.64;100.00;97824.69;5076932;28;19959;-71
2023/01/25 06:48:43;;;;;;;;;;;;;;;0.65;100.00;97826.34;5076302;28;19982;-71
2023/01/25 06:51:13;;;;;;;;;;;;;;;0.66;100.00;97814.22;5075100;28;20306;-71
2023/01/25 06:53:41;;;;;;;;;;;;;;;0.65;100.00;97830.66;5075987;28;19974;-73
2023/01/25 06:56:11;;;;;;;;;;;;;;;0.67;100.00;97828.78;5066196;28;19954;-71
2023/01/25 06:58:37;;;;;;;;;;;;;;;0.64;100.00;97822.09;5075999;28;19958;-71
2023/01/25 07:01:05;;;;;;;;;;;;;;;0.59;100.00;97821.66;5076097;28;20320;-72
2023/01/25 07:03:31;;;;;;;;;;;;;;;0.58;100.00;97820.81;5062198;28;19957;-71
2023/01/25 07:05:58;;;;;;;;;;;;;;;0.59;100.00;97819.06;5076260;28;19996;-72
2023/01/25 07:08:23;;;;;;;;;;;;;;;0.59;100.00;97817.31;5076251;28;19954;-72
2023/01/25 07:10:56;;;;;;;;;;;;;;;0.58;100.00;97812.25;5075388;28;20046;-71
2023/01/25 07:13:22;;;;;;;;;;;;;;;0.59;100.00;97814.72;5075853;28;20437;-71
2023/01/25 07:15:52;;;;;;;;;;;;;;;0.60;100.00;97810.38;5075849;28;20333;-71
2023/01/25 07:18:18;;;;;;;;;;;;;;;0.63;100.00;97811.88;5076050;28;20323;-71
2023/01/25 07:20:44;;;;;;;;;;;;;;;0.64;100.00;97805.78;5075647;28;19957;-71
2023/01/25 07:23:10;;;;;;;;;;;;;;;0.65;100.00;97794.50;5076022;28;20001;-71
2023/01/25 07:25:35;;;;;;;;;;;;;;;0.66;100.00;97788.41;5076189;28;19955;-71
2023/01/25 07:28:01;;;;;;;;;;;;;;;0.65;100.00;97786.75;5075763;28;19954;-72
2023/01/25 07:30:27;;;;;;;;;;;;;;;0.66;100.00;97785.84;5074819;28;20414;-71
2023/01/25 07:32:54;;;;;;;;;;;;;;;0.66;100.00;97788.41;5075733;28;19978;-72
2023/01/25 07:35:20;;;;;;;;;;;;;;;0.65;100.00;97787.59;5065673;28;19966;-72
2023/01/25 07:37:46;;;;;;;;;;;;;;;0.65;100.00;97786.75;5075573;28;19956;-71
2023/01/25 07:40:12;;;;;;;;;;;;;;;0.64;100.00;97798.84;5075379;28;19957;-72
2023/01/25 07:42:38;;;;;;;;;;;;;;;0.65;100.00;97797.94;5075564;28;19977;-71
2023/01/25 07:45:04;;;;;;;;;;;;;;;0.66;100.00;97788.41;5073849;28;20425;-71
2023/01/25 07:47:30;;;;;;;;;;;;;;;0.69;100.00;97788.16;5075538;28;19954;-71
2023/01/25 07:49:55;;;;;;;;;;;;;;;0.70;100.00;97785.47;5075386;28;20303;-71
2023/01/25 07:52:21;;;;;;;;;;;;;;;0.72;100.00;97783.56;5075141;28;19958;-71
2023/01/25 07:54:48;;;;;;;;;;;;;;;0.76;100.00;97784.16;5075211;28;19974;-71
2023/01/25 07:57:14;;;;;;;;;;;;;;;0.76;100.00;97776.41;5075318;28;19960;-71
2023/01/25 07:59:40;;;;;;;;;;;;;;;0.75;100.00;97779.94;5075032;28;19953;-72
2023/01/25 08:02:09;;;;;;;;;;;;;;;0.72;100.00;97777.59;5075229;28;19956;-71
2023/01/25 08:04:34;;;;;;;;;;;;;;;0.66;100.00;97781.50;5075264;28;19973;-71
2023/01/25 08:07:00;;;;;;;;;;;;;;;0.64;100.00;97779.97;5075126;28;19962;-71
2023/01/25 08:09:27;;;;;;;;;;;;;;;0.64;100.00;97782.56;5075477;28;20412;-71
2023/01/25 08:11:53;;;;;;;;;;;;;;;0.63;100.00;97788.66;5074831;28;20344;-72
2023/01/25 08:14:18;;;;;;;;;;;;;;;0.58;100.00;97781.28;5075021;28;19995;-71
2023/01/25 08:16:44;;;;;;;;;;;;;;;0.54;100.00;97791.00;5074764;28;19998;-71
2023/01/25 08:19:10;;;;;;;;;;;;;;;0.57;100.00;97784.81;5075197;28;20413;-71
2023/01/25 08:21:36;;;;;;;;;;;;;;;0.61;100.00;97788.78;5074291;28;19946;-71
2023/01/25 08:24:04;;;;;;;;;;;;;;;0.60;100.00;97787.13;5073985;28;19950;-71
2023/01/25 08:26:30;;;;;;;;;;;;;;;0.62;100.00;97789.59;5074594;28;19944;-71
2023/01/25 08:28:56;;;;;;;;;;;;;;;0.61;100.00;97788.78;5074821;28;19961;-71
2023/01/25 08:31:24;;;;;;;;;;;;;;;0.58;100.00;97800.16;5074699;28;19956;-71
2023/01/25 08:33:50;;;;;;;;;;;;;;;0.56;100.00;97793.47;5074448;28;19972;-71
2023/01/25 08:36:17;;;;;;;;;;;;;;;0.57;100.00;97795.13;5074518;28;19952;-71
2023/01/25 08:38:43;;;;;;;;;;;;;;;0.60;100.00;97794.88;5074422;28;19961;-72
2023/01/25 08:41:10;;;;;;;;;;;;;;;1.18;100.00;97794.56;5074466;28;19962;-72
2023/01/25 08:43:37;;;;;;;;;;;;;;;2.43;100.00;97792.66;5063720;28;19980;-71
2023/01/25 08:46:03;;;;;;;;;;;;;;;3.57;100.00;97783.38;5074240;28;19967;-71
2023/01/25 08:48:29;;;;;;;;;;;;;;;3.91;100.00;97779.44;5074743;28;19948;-72
2023/01/25 08:50:55;;;;;;;;;;;;;;;3.65;100.00;97775.72;5074178;28;19959;-72
2023/01/25 08:53:21;;;;;;;;;;;;;;;3.18;100.00;97777.44;5074180;28;19964;-71
2023/01/25 08:55:47;;;;;;;;;;;;;;;2.84;100.00;97772.69;5074071;28;20045;-72
2023/01/25 08:58:15;;;;;;;;;;;;;;;2.50;100.00;97759.28;5073968;28;20396;-72
2023/01/25 09:00:42;;;;;;;;;;;;;;;2.22;100.00;97751.31;5074124;28;19971;-72
2023/01/25 09:03:09;;;;;;;;;;;;;;;1.95;100.00;97759.69;5074155;28;19960;-72
2023/01/25 09:05:36;;;;;;;;;;;;;;;1.74;100.00;97768.34;5073752;28;19951;-72
2023/01/25 09:08:02;;;;;;;;;;;;;;;1.53;100.00;97760.59;5073996;28;20400;-72
2023/01/25 09:10:28;;;;;;;;;;;;;;;1.44;100.00;97757.97;5073602;28;20402;-72
2023/01/25 09:12:54;;;;;;;;;;;;;;;1.38;100.00;97752.34;5073621;28;20055;-72
2023/01/25 09:15:21;;;;;;;;;;;;;;;1.33;100.00;97751.13;5073807;28;20016;-72
2023/01/25 09:17:54;;;;;;;;;;;;;;;1.25;100.00;97759.50;5073733;28;19953;-72
2023/01/25 09:20:20;;;;;;;;;;;;;;;1.12;100.00;97751.13;5073995;28;19960;-72
2023/01/25 09:22:46;;;;;;;;;;;;;;;1.03;100.00;97744.94;5073798;28;19947;-73
2023/01/25 09:25:12;;;;;;;;;;;;;;;0.96;100.00;97743.78;5073804;28;19948;-72
2023/01/25 09:27:38;;;;;;;;;;;;;;;0.91;100.00;97754.50;5073565;28;19957;-72
2023/01/25 09:30:05;;;;;;;;;;;;;;;0.88;100.00;97756.50;5073690;28;20396;-72
2023/01/25 09:32:31;;;;;;;;;;;;;;;0.88;100.00;97747.00;5073886;28;19952;-72
2023/01/25 09:34:57;;;;;;;;;;;;;;;0.90;100.00;97746.88;5073476;28;20460;-72
2023/01/25 09:37:23;;;;;;;;;;;;;;;0.90;100.00;97744.28;5073680;28;19949;-72
2023/01/25 09:39:49;;;;;;;;;;;;;;;0.86;100.00;97745.47;5073526;28;19990;-72
2023/01/25 09:42:35;;;;;;;;;;;;;;;0.77;100.00;97747.88;5073283;28;20027;-72
2023/01/25 09:45:04;;;;;;;;;;;;;;;0.71;100.00;97756.09;5061938;28;19949;-72
2023/01/25 09:47:49;;;;;;;;;;;;;;;0.65;100.00;97754.03;5073556;28;19974;-72
2023/01/25 09:50:24;;;;;;;;;;;;;;;0.56;100.00;97752.19;5072381;28;19952;-72
2023/01/25 09:53:08;;;;;;;;;;;;;;;0.52;100.00;97750.78;5074464;28;19955;-72
2023/01/25 09:55:34;;;;;;;;;;;;;;;0.46;100.00;97753.84;5079878;28;19956;-72
2023/01/25 09:58:01;;;;;;;;;;;;;;;0.43;100.00;97752.34;5080285;28;19955;-72
2023/01/25 10:00:27;;;;;;;;;;;;;;;0.39;100.00;97751.75;5079861;28;19955;-72
2023/01/25 10:02:56;;;;;;;;;;;;;;;0.38;100.00;97752.72;5079535;28;19958;-72
2023/01/25 10:05:24;;;;;;;;;;;;;;;0.36;100.00;97751.19;5079974;28;19950;-72
2023/01/25 10:07:57;;;;;;;;;;;;;;;0.35;100.00;97740.03;5080044;28;20431;-73
2023/01/25 10:10:35;;;;;;;;;;;;;;;0.42;100.00;97748.13;5079911;28;19959;-72
2023/01/25 10:13:04;;;;;;;;;;;;;;;0.51;100.00;97744.81;5079830;28;19952;-73
2023/01/25 10:15:38;;;;;;;;;;;;;;;0.56;100.00;97739.28;5066986;28;19951;-72
2023/01/25 10:18:14;;;;;;;;;;;;;;;0.56;100.00;97736.69;5079802;28;19951;-73
2023/01/25 10:20:46;;;;;;;;;;;;;;;0.50;100.00;97740.56;5078645;28;19942;-72
2023/01/25 10:23:14;;;;;;;;;;;;;;;0.46;100.00;97746.09;5079933;28;19955;-73
2023/01/25 10:26:00;;;;;;;;;;;;;;;0.47;100.00;97743.41;5079554;28;19943;-73
2023/01/25 10:28:36;;;;;;;;;;;;;;;0.54;100.00;97744.56;5079346;28;19957;-72
2023/01/25 10:31:10;;;;;;;;;;;;;;;0.62;100.00;97741.38;5080018;28;20317;-72
2023/01/25 10:33:38;;;;;;;;;;;;;;;0.62;100.00;97730.22;5079730;28;19968;-73
2023/01/25 10:36:04;;;;;;;;;;;;;;;0.63;100.00;97718.94;5079617;28;19957;-72
2023/01/25 10:38:44;;;;;;;;;;;;;;;0.62;100.00;97712.16;5079739;28;19962;-73
2023/01/25 10:41:18;;;;;;;;;;;;;;;0.62;100.00;97715.53;5072188;28;19958;-72
2023/01/25 10:43:44;;;;;;;;;;;;;;;0.62;100.00;97717.31;5079473;28;19954;-72
2023/01/25 10:46:18;;;;;;;;;;;;;;;0.58;100.00;97709.00;5079550;28;20002;-73
2023/01/25 10:48:44;;;;;;;;;;;;;;;0.58;100.00;97709.81;5068221;28;20324;-73
2023/01/25 10:51:27;;;;;;;;;;;;;;;0.65;100.00;97706.72;5078924;28;20347;-73
2023/01/25 10:54:03;;;;;;;;;;;;;;;0.71;100.00;97695.91;5069954;28;20335;-73
2023/01/25 10:56:31;;;;;;;;;;;;;;;0.75;100.00;97684.38;5079600;28;19951;-73
2023/01/25 10:59:06;;;;;;;;;;;;;;;0.80;100.00;97687.44;5079589;28;19962;-73
2023/01/25 11:01:33;;;;;;;;;;;;;;;0.86;100.00;97683.50;5079261;28;20421;-73
2023/01/25 11:04:00;;;;;;;;;;;;;;;0.90;100.00;97684.88;5079144;28;19951;-73
2023/01/25 11:06:28;;;;;;;;;;;;;;;0.90;100.00;97683.13;5075442;28;19949;-74
2023/01/25 11:08:54;;;;;;;;;;;;;;;0.90;100.00;97677.16;5076131;28;19962;-73
2023/01/25 11:11:31;;;;;;;;;;;;;;;0.91;100.00;97683.97;5074815;28;19965;-73
2023/01/25 11:13:57;;;;;;;;;;;;;;;0.88;100.00;97674.69;5075931;28;19960;-73
2023/01/25 11:16:31;;;;;;;;;;;;;;;0.89;100.00;97668.59;5075692;28;19951;-73
2023/01/25 11:18:58;;;;;;;;;;;;;;;0.88;100.00;97668.69;5076285;28;19958;-73
2023/01/25 11:21:25;;;;;;;;;;;;;;;0.85;100.00;97664.63;5075899;28;19960;-73
2023/01/25 11:23:59;;;;;;;;;;;;;;;0.84;100.00;97672.47;5075417;28;19960;-73
2023/01/25 11:26:25;;;;;;;;;;;;;;;0.84;100.00;97670.75;5076495;28;20415;-73
2023/01/25 11:29:05;;;;;;;;;;;;;;;0.86;100.00;97666.25;5076191;28;20001;-73
2023/01/25 11:31:30;;;;;;;;;;;;;;;0.87;100.00;97664.50;5076312;28;19948;-73
2023/01/25 11:33:56;;;;;;;;;;;;;;;0.87;100.00;97667.88;5075620;28;19967;-73
2023/01/25 11:36:34;;;;;;;;;;;;;;;0.85;100.00;97663.81;5075919;28;19996;-73
2023/01/25 11:39:03;;;;;;;;;;;;;;;0.81;100.00;97658.06;5075649;28;20416;-73
2023/01/25 11:41:35;;;;;;;;;;;;;;;0.77;100.00;97656.69;5075260;28;19955;-73
2023/01/25 11:44:10;;;;;;;;;;;;;;;0.72;100.00;97664.00;5059906;28;19952;-73
2023/01/25 11:46:45;;;;;;;;;;;;;;;0.70;100.00;97658.94;5075558;28;20302;-73
2023/01/25 11:49:11;;;;;;;;;;;;;;;0.69;100.00;97652.13;5075591;28;20420;-73
2023/01/25 11:51:37;;;;;;;;;;;;;;;0.69;100.00;97638.41;5075608;28;19944;-73
2023/01/25 11:54:21;;;;;;;;;;;;;;;0.68;100.00;97640.19;5075349;28;19970;-73
2023/01/25 11:56:50;;;;;;;;;;;;;;;0.69;100.00;97641.81;5075461;28;19977;-73
2023/01/25 11:59:16;;;;;;;;;;;;;;;0.71;100.00;97632.16;5075163;28;19951;-73
2023/01/25 12:01:42;;;;;;;;;;;;;;;0.70;100.00;97629.72;5074444;28;19953;-73
2023/01/25 12:04:26;;;;;;;;;;;;;;;0.71;100.00;97624.44;5075343;28;20002;-73
2023/01/25 12:06:58;;;;;;;;;;;;;;;0.71;100.00;97619.25;5075018;28;19953;-73
2023/01/25 12:09:27;;;;;;;;;;;;;;;0.69;100.00;97608.25;5075165;28;19956;-73
2023/01/25 12:12:01;;;;;;;;;;;;;;;0.68;100.00;97598.88;5075238;28;19964;-73
2023/01/25 12:14:46;;;;;;;;;;;;;;;0.69;100.00;97599.69;5075091;28;19972;-73
2023/01/25 12:17:13;;;;;;;;;;;;;;;0.69;100.00;97595.34;5093257;28;19954;-73
2023/01/25 12:19:58;;;;;;;;;;;;;;;0.70;100.00;97586.66;5075091;28;19951;-73
2023/01/25 12:22:42;;;;;;;;;;;;;;;0.76;100.00;97577.59;5074971;28;19958;-73
2023/01/25 12:25:26;;;;;;;;;;;;;;;0.78;100.00;97573.13;5074746;28;20397;-73
2023/01/25 12:27:55;;;;;;;;;;;;;;;0.78;100.00;97573.13;5075040;28;19956;-73
2023/01/25 12:30:53;;;;;;;;;;;;;;;0.76;100.00;97572.44;5074611;28;19952;-73
2023/01/25 12:33:21;;;;;;;;;;;;;;;0.71;100.00;97565.03;5040803;28;19967;-73
2023/01/25 12:36:10;;;;;;;;;;;;;;;0.73;100.00;97559.75;5074562;28;19970;-73
2023/01/25 12:38:39;;;;;;;;;;;;;;;0.75;100.00;97550.94;5074690;28;19947;-74
2023/01/25 12:41:25;;;;;;;;;;;;;;;0.77;100.00;97537.91;5074311;28;19960;-73
2023/01/25 12:43:54;;;;;;;;;;;;;;;0.76;100.00;97546.59;5063556;28;19954;-73
2023/01/25 12:46:27;;;;;;;;;;;;;;;0.69;100.00;97541.13;5072979;28;19970;-73
2023/01/25 12:48:56;;;;;;;;;;;;;;;0.59;100.00;97532.53;5074404;28;19950;-73
2023/01/25 12:51:23;;;;;;;;;;;;;;;0.55;100.00;97533.72;5074137;28;19945;-73
2023/01/25 12:53:51;;;;;;;;;;;;;;;0.47;100.00;97524.03;5074136;28;19963;-74